createdAt,value
2018-04-01T00:05:58.157Z,17.1
2018-04-01T00:15:56.769Z,17.2
2018-04-01T00:25:55.867Z,17.2
2018-04-01T00:35:55.692Z,17.3
2018-04-01T00:45:54.766Z,17.3
2018-04-01T00:55:53.813Z,17.2
2018-04-01T01:05:53.167Z,17.2
2018-04-01T01:15:52.269Z,17.1
2018-04-01T01:25:51.432Z,16.9
2018-04-01T01:35:50.921Z,16.8
2018-04-01T01:45:49.561Z,16.7
2018-04-01T01:55:49.000Z,16.6
2018-04-01T02:05:48.003Z,16.4
2018-04-01T02:15:47.310Z,16.3
2018-04-01T02:25:47.069Z,16.2
2018-04-01T02:35:45.786Z,16.1
2018-04-01T02:45:45.018Z,15.8
2018-04-01T02:55:43.949Z,15.8
2018-04-01T03:05:43.447Z,15.6
2018-04-01T03:15:42.351Z,15.5
2018-04-01T03:25:41.706Z,15.4
2018-04-01T03:35:41.060Z,15.3
2018-04-01T03:45:40.576Z,15
2018-04-01T03:55:39.226Z,14.5
2018-04-01T04:05:38.457Z,13.8
2018-04-01T04:15:37.798Z,13
2018-04-01T04:25:37.035Z,12.8
2018-04-01T04:35:36.036Z,12.6
2018-04-01T04:45:35.100Z,12.4
2018-04-01T04:55:34.544Z,11.9
2018-04-01T05:05:33.822Z,11.9
2018-04-01T05:15:33.497Z,11.5
2018-04-01T05:25:32.519Z,11
2018-04-01T05:35:31.581Z,10.9
2018-04-01T05:45:30.606Z,11.1
2018-04-01T05:55:30.288Z,11.5
2018-04-01T06:05:29.163Z,13.3
2018-04-01T06:15:28.365Z,14.4
2018-04-01T06:25:28.079Z,15.8
2018-04-01T06:35:26.496Z,16.4
2018-04-01T06:45:25.637Z,17.3
2018-04-01T06:55:24.950Z,18.6
2018-04-01T07:05:24.130Z,19.9
2018-04-01T07:15:23.404Z,21.2
2018-04-01T07:25:22.436Z,21.6
2018-04-01T07:35:22.156Z,22.9
2018-04-01T07:45:21.252Z,22.6
2018-04-01T07:55:20.123Z,23.7
2018-04-01T08:05:19.307Z,24.1
2018-04-01T08:15:18.909Z,24.9
2018-04-01T08:25:18.091Z,24.8
2018-04-01T08:35:17.300Z,25.1
2018-04-01T08:45:16.700Z,23.6
2018-04-01T08:55:15.391Z,23.5
2018-04-01T09:05:15.278Z,23.8
2018-04-01T09:15:13.964Z,23.1
2018-04-01T09:25:13.454Z,21.4
2018-04-01T09:35:12.709Z,21
2018-04-01T09:45:11.834Z,20.8
2018-04-01T09:55:11.055Z,20.7
2018-04-01T10:05:10.081Z,20.7
2018-04-01T10:15:09.390Z,21.1
2018-04-01T10:25:08.464Z,19.8
2018-04-01T10:35:07.840Z,18.5
2018-04-01T10:45:06.641Z,17.1
2018-04-01T10:55:05.767Z,16.6
2018-04-01T11:05:05.442Z,17.4
2018-04-01T11:15:04.626Z,17.4
2018-04-01T11:25:04.083Z,17.2
2018-04-01T11:35:02.684Z,14
2018-04-01T11:45:02.265Z,11.4
2018-04-01T11:55:01.145Z,11
2018-04-01T12:05:00.280Z,11.5
2018-04-01T12:14:59.524Z,12
2018-04-01T12:24:58.878Z,12.4
2018-04-01T12:34:58.220Z,12.6
2018-04-01T12:44:57.511Z,13.2
2018-04-01T12:54:56.388Z,13.9
2018-04-01T13:04:55.754Z,14.3
2018-04-01T13:14:55.315Z,14.7
2018-04-01T13:24:53.971Z,14.8
2018-04-01T13:34:53.284Z,15.3
2018-04-01T13:44:52.757Z,15.1
2018-04-01T13:54:51.734Z,14.6
2018-04-01T14:04:51.007Z,11.5
2018-04-01T14:14:50.348Z,10.2
2018-04-01T14:24:49.209Z,9.8
2018-04-01T14:34:48.786Z,10.2
2018-04-01T14:44:47.864Z,10.1
2018-04-01T14:54:47.097Z,10.4
2018-04-01T15:04:46.431Z,10.6
2018-04-01T15:14:45.705Z,10.7
2018-04-01T15:24:44.798Z,10.9
2018-04-01T15:34:43.574Z,11
2018-04-01T15:44:43.255Z,10.7
2018-04-01T15:54:42.178Z,10.6
2018-04-01T16:04:41.605Z,10.4
2018-04-01T16:14:40.998Z,10.1
2018-04-01T16:24:40.107Z,9.8
2018-04-01T16:34:39.383Z,10.3
2018-04-01T16:44:38.117Z,11
2018-04-01T16:54:37.706Z,11.4
2018-04-01T17:04:36.641Z,11.6
2018-04-01T17:14:36.031Z,11.6
2018-04-01T17:24:35.363Z,11.6
2018-04-01T17:34:34.839Z,11.7
2018-04-01T17:44:33.582Z,11.6
2018-04-01T17:54:32.892Z,11.6
2018-04-01T18:04:32.198Z,11.6
2018-04-01T18:14:31.481Z,11.6
2018-04-01T18:24:30.491Z,11.6
2018-04-01T18:34:30.331Z,11.5
2018-04-01T18:44:28.822Z,11.4
2018-04-01T18:54:27.801Z,11.4
2018-04-01T19:04:27.952Z,11.3
2018-04-01T19:14:26.803Z,11.3
2018-04-01T19:24:25.853Z,11.2
2018-04-01T19:34:24.744Z,11.2
2018-04-01T19:44:24.060Z,11.1
2018-04-01T19:54:23.853Z,11.1
2018-04-01T20:04:22.876Z,11
2018-04-01T20:14:21.992Z,10.9
2018-04-01T20:24:20.726Z,10.9
2018-04-01T20:34:20.633Z,10.8
2018-04-01T20:44:19.344Z,10.8
2018-04-01T20:54:19.354Z,10.9
2018-04-01T21:04:17.929Z,10.9
2018-04-01T21:14:17.276Z,10.9
2018-04-01T21:24:16.025Z,10.9
2018-04-01T21:34:15.501Z,10.9
2018-04-01T21:44:14.430Z,10.8
2018-04-01T21:54:13.769Z,10.8
2018-04-01T22:04:13.086Z,10.8
2018-04-01T22:14:12.395Z,10.8
2018-04-01T22:24:11.840Z,10.8
2018-04-01T22:34:10.879Z,10.7
2018-04-01T22:44:10.112Z,10.7
2018-04-01T22:54:09.110Z,10.8
2018-04-01T23:04:08.185Z,10.8
2018-04-01T23:14:07.350Z,11
2018-04-01T23:24:06.790Z,11.2
2018-04-01T23:34:05.798Z,11.2
2018-04-01T23:44:05.516Z,11.1
2018-04-01T23:54:04.442Z,11.1
